createdAt,value
2018-05-29T00:01:16.534Z,22.03
2018-05-29T00:03:44.845Z,21.80
2018-05-29T00:06:13.926Z,21.77
2018-05-29T00:08:42.215Z,21.81
2018-05-29T00:11:10.541Z,21.68
2018-05-29T00:13:38.834Z,21.61
2018-05-29T00:16:07.155Z,21.70
2018-05-29T00:18:36.212Z,21.64
2018-05-29T00:21:04.508Z,21.51
2018-05-29T00:23:32.891Z,21.39
2018-05-29T00:26:01.217Z,21.33
2018-05-29T00:28:29.520Z,21.26
2018-05-29T00:30:57.854Z,21.23
2018-05-29T00:33:26.157Z,21.19
2018-05-29T00:35:54.469Z,21.15
2018-05-29T00:38:22.799Z,21.11
2018-05-29T00:40:51.211Z,21.14
2018-05-29T00:43:19.523Z,21.05
2018-05-29T00:45:47.841Z,20.99
2018-05-29T00:48:16.149Z,20.97
2018-05-29T00:50:44.477Z,20.91
2018-05-29T00:53:12.800Z,20.84
2018-05-29T00:55:41.106Z,20.81
2018-05-29T00:58:09.390Z,20.79
2018-05-29T01:00:37.753Z,20.77
2018-05-29T01:03:06.075Z,20.75
2018-05-29T01:05:34.379Z,20.73
2018-05-29T01:08:02.673Z,20.73
2018-05-29T01:10:30.996Z,20.72
2018-05-29T01:13:00.032Z,20.62
2018-05-29T01:15:28.414Z,20.56
2018-05-29T01:17:56.683Z,20.52
2018-05-29T01:20:24.991Z,20.58
2018-05-29T01:22:53.342Z,20.51
2018-05-29T01:25:21.692Z,20.51
2018-05-29T01:27:49.995Z,20.42
2018-05-29T01:30:18.385Z,20.45
2018-05-29T01:32:46.703Z,20.45
2018-05-29T01:35:15.813Z,20.38
2018-05-29T01:37:44.903Z,20.34
2018-05-29T01:40:14.935Z,20.42
2018-05-29T01:42:43.243Z,20.39
2018-05-29T01:45:11.699Z,20.37
2018-05-29T01:47:39.998Z,20.42
2018-05-29T01:50:11.425Z,20.35
2018-05-29T01:52:39.731Z,20.32
2018-05-29T01:55:08.216Z,20.26
2018-05-29T01:57:36.491Z,20.26
2018-05-29T02:00:04.800Z,20.21
2018-05-29T02:02:33.101Z,20.19
2018-05-29T02:05:02.184Z,20.15
2018-05-29T02:07:30.477Z,20.19
2018-05-29T02:09:59.569Z,20.17
2018-05-29T02:12:28.719Z,20.09
2018-05-29T02:14:57.019Z,20.06
2018-05-29T02:17:25.317Z,20.05
2018-05-29T02:19:54.362Z,20.05
2018-05-29T02:22:22.774Z,20.07
2018-05-29T02:24:51.091Z,20.10
2018-05-29T02:27:19.412Z,20.15
2018-05-29T02:29:47.724Z,20.09
2018-05-29T02:32:16.803Z,20.09
2018-05-29T02:34:45.105Z,20.05
2018-05-29T02:37:14.177Z,20.02
2018-05-29T02:39:42.509Z,19.97
2018-05-29T02:42:10.817Z,19.92
2018-05-29T02:44:39.143Z,19.87
2018-05-29T02:47:07.449Z,19.84
2018-05-29T02:49:35.775Z,19.88
2018-05-29T02:52:04.090Z,19.89
2018-05-29T02:54:32.409Z,19.86
2018-05-29T02:57:00.694Z,19.87
2018-05-29T02:59:30.609Z,19.85
2018-05-29T03:01:58.905Z,19.81
2018-05-29T03:04:28.005Z,19.81
2018-05-29T03:06:57.039Z,19.74
2018-05-29T03:09:25.342Z,19.75
2018-05-29T03:11:53.626Z,19.71
2018-05-29T03:14:21.924Z,19.70
2018-05-29T03:16:51.079Z,19.70
2018-05-29T03:19:19.400Z,19.70
2018-05-29T03:21:47.713Z,19.70
2018-05-29T03:24:16.015Z,19.74
2018-05-29T03:26:44.313Z,19.76
2018-05-29T03:29:12.584Z,19.80
2018-05-29T03:31:41.140Z,19.85
2018-05-29T03:34:09.448Z,19.87
2018-05-29T03:36:37.757Z,19.94
2018-05-29T03:39:06.806Z,20.02
2018-05-29T03:41:35.241Z,20.00
2018-05-29T03:44:03.563Z,20.14
2018-05-29T03:46:31.875Z,20.22
2018-05-29T03:49:00.956Z,20.27
2018-05-29T03:51:29.291Z,20.36
2018-05-29T03:53:57.588Z,20.47
2018-05-29T03:56:25.883Z,20.54
2018-05-29T03:58:54.228Z,21.20
2018-05-29T04:01:22.856Z,22.26
2018-05-29T04:03:51.219Z,22.62
2018-05-29T04:06:19.510Z,23.61
2018-05-29T04:08:47.846Z,23.70
2018-05-29T04:11:16.113Z,24.56
2018-05-29T04:13:44.444Z,24.89
2018-05-29T04:16:12.740Z,25.03
2018-05-29T04:18:41.909Z,25.49
2018-05-29T04:21:10.209Z,25.07
2018-05-29T04:23:38.515Z,25.37
2018-05-29T04:26:06.821Z,25.93
2018-05-29T04:28:35.147Z,26.01
2018-05-29T04:31:04.194Z,26.97
2018-05-29T04:33:32.498Z,26.85
2018-05-29T04:36:00.831Z,27.49
2018-05-29T04:38:29.124Z,27.86
2018-05-29T04:40:57.441Z,28.08
2018-05-29T04:43:25.798Z,28.06
2018-05-29T04:45:54.071Z,27.39
2018-05-29T04:48:22.367Z,28.88
2018-05-29T04:50:50.653Z,28.51
2018-05-29T04:53:18.946Z,29.25
2018-05-29T04:55:51.563Z,30.11
2018-05-29T04:58:19.879Z,29.81
2018-05-29T05:00:48.180Z,29.84
2018-05-29T05:03:17.261Z,31.34
2018-05-29T05:05:45.578Z,30.53
2018-05-29T05:08:13.897Z,30.15
2018-05-29T05:10:42.211Z,30.94
2018-05-29T05:13:11.258Z,29.74
2018-05-29T05:15:39.559Z,29.59
2018-05-29T05:18:07.873Z,32.48
2018-05-29T05:20:36.198Z,31.37
2018-05-29T05:23:04.506Z,33.27
2018-05-29T05:25:32.831Z,32.03
2018-05-29T05:28:01.137Z,31.56
2018-05-29T05:30:29.424Z,32.08
2018-05-29T05:32:57.765Z,32.78
2018-05-29T05:35:26.100Z,33.58
2018-05-29T05:37:54.419Z,31.77
2018-05-29T05:40:22.717Z,31.91
2018-05-29T05:42:51.034Z,33.98
2018-05-29T05:45:20.099Z,34.03
2018-05-29T05:47:48.385Z,35.80
2018-05-29T05:50:17.003Z,32.90
2018-05-29T05:52:45.399Z,32.41
2018-05-29T05:55:13.777Z,33.11
2018-05-29T05:57:42.081Z,33.88
2018-05-29T06:00:10.418Z,33.78
2018-05-29T06:02:38.746Z,34.05
2018-05-29T06:05:07.046Z,35.13
2018-05-29T06:07:35.360Z,35.43
2018-05-29T06:10:03.682Z,33.27
2018-05-29T06:12:32.802Z,32.90
2018-05-29T06:15:01.102Z,33.11
2018-05-29T06:17:30.228Z,35.42
2018-05-29T06:19:58.548Z,34.22
2018-05-29T06:22:26.890Z,33.59
2018-05-29T06:24:55.186Z,32.83
2018-05-29T06:27:23.533Z,33.92
2018-05-29T06:29:51.858Z,34.05
2018-05-29T06:32:20.206Z,35.03
2018-05-29T06:34:48.542Z,35.14
2018-05-29T06:37:17.649Z,33.86
2018-05-29T06:39:46.773Z,34.34
2018-05-29T06:42:15.121Z,33.75
2018-05-29T06:44:43.436Z,35.74
2018-05-29T06:47:11.776Z,35.37
2018-05-29T06:49:40.881Z,34.38
2018-05-29T06:52:09.196Z,34.34
2018-05-29T06:54:37.480Z,33.88
2018-05-29T06:57:06.540Z,35.54
2018-05-29T06:59:34.844Z,34.93
2018-05-29T07:02:03.192Z,34.27
2018-05-29T07:04:31.508Z,35.00
2018-05-29T07:06:59.819Z,33.99
2018-05-29T07:09:30.588Z,31.55
2018-05-29T07:11:58.880Z,35.02
2018-05-29T07:14:27.207Z,35.42
2018-05-29T07:16:55.510Z,34.77
2018-05-29T07:19:23.829Z,35.56
2018-05-29T07:21:52.146Z,34.05
2018-05-29T07:24:21.220Z,32.78
2018-05-29T07:26:49.500Z,32.64
2018-05-29T07:29:17.796Z,34.22
2018-05-29T07:31:46.873Z,33.95
2018-05-29T07:34:15.180Z,33.88
2018-05-29T07:36:44.278Z,32.61
2018-05-29T07:39:13.323Z,33.33
2018-05-29T07:41:41.656Z,33.88
2018-05-29T07:44:09.976Z,34.56
2018-05-29T07:46:38.420Z,33.27
2018-05-29T07:49:06.720Z,32.73
2018-05-29T07:51:34.998Z,33.31
2018-05-29T07:54:03.337Z,33.52
2018-05-29T07:56:32.464Z,34.29
2018-05-29T07:59:00.761Z,35.41
2018-05-29T08:01:29.083Z,34.34
2018-05-29T08:03:58.149Z,32.80
2018-05-29T08:06:26.480Z,33.89
2018-05-29T08:08:55.520Z,33.65
2018-05-29T08:11:23.810Z,33.97
2018-05-29T08:13:52.090Z,33.31
2018-05-29T08:16:20.396Z,33.39
2018-05-29T08:18:48.741Z,34.04
2018-05-29T08:21:17.023Z,33.30
2018-05-29T08:23:45.360Z,32.76
2018-05-29T08:26:13.667Z,32.45
2018-05-29T08:28:41.966Z,32.15
2018-05-29T08:31:10.242Z,32.44
2018-05-29T08:33:39.339Z,32.21
2018-05-29T08:36:07.657Z,33.13
2018-05-29T08:41:10.479Z,33.81
2018-05-29T08:43:38.791Z,33.06
2018-05-29T08:46:07.106Z,33.25
2018-05-29T08:48:35.439Z,33.01
2018-05-29T08:51:03.743Z,33.47
2018-05-29T08:53:32.799Z,31.89
2018-05-29T08:56:01.086Z,31.68
2018-05-29T08:58:29.396Z,32.28
2018-05-29T09:00:58.460Z,32.55
2018-05-29T09:03:30.313Z,33.71
2018-05-29T09:05:58.620Z,33.43
2018-05-29T09:08:28.640Z,34.66
2018-05-29T09:10:57.690Z,34.11
2018-05-29T09:13:26.058Z,32.54
2018-05-29T09:15:54.345Z,32.19
2018-05-29T09:18:22.649Z,33.03
2018-05-29T09:20:50.990Z,33.61
2018-05-29T09:23:19.275Z,33.12
2018-05-29T09:25:47.576Z,33.80
2018-05-29T09:28:15.881Z,32.46
2018-05-29T09:30:44.963Z,32.66
2018-05-29T09:33:13.264Z,32.78
2018-05-29T09:35:41.564Z,32.68
2018-05-29T09:38:09.883Z,33.05
2018-05-29T09:40:38.209Z,33.35
2018-05-29T09:43:06.517Z,32.14
2018-05-29T09:45:34.841Z,33.14
2018-05-29T09:48:03.876Z,32.74
2018-05-29T09:50:32.184Z,31.69
2018-05-29T09:53:00.501Z,31.99
2018-05-29T09:55:29.621Z,31.17
2018-05-29T09:57:57.965Z,31.12
2018-05-29T10:00:32.520Z,30.59
2018-05-29T10:03:01.044Z,30.70
2018-05-29T10:05:29.397Z,31.36
2018-05-29T10:07:57.721Z,31.78
2018-05-29T10:10:26.028Z,31.82
2018-05-29T10:12:54.445Z,31.85
2018-05-29T10:15:22.772Z,31.31
2018-05-29T10:17:51.844Z,31.71
2018-05-29T10:20:20.139Z,31.72
2018-05-29T10:22:49.241Z,32.30
2018-05-29T10:25:18.432Z,31.89
2018-05-29T10:27:47.507Z,32.18
2018-05-29T10:30:15.835Z,31.74
2018-05-29T10:32:45.096Z,32.14
2018-05-29T10:35:13.376Z,31.71
2018-05-29T10:37:42.602Z,32.08
2018-05-29T10:40:10.883Z,31.86
2018-05-29T10:42:39.225Z,33.00
2018-05-29T10:45:07.547Z,32.41
2018-05-29T10:47:35.875Z,32.25
2018-05-29T10:50:04.141Z,32.45
2018-05-29T10:52:32.485Z,31.89
2018-05-29T10:55:01.514Z,31.74
2018-05-29T10:57:29.828Z,31.39
2018-05-29T10:59:58.155Z,31.32
2018-05-29T11:02:26.478Z,31.46
2018-05-29T11:04:55.608Z,31.51
2018-05-29T11:07:23.941Z,31.53
2018-05-29T11:09:52.272Z,31.31
2018-05-29T11:12:20.585Z,30.58
2018-05-29T11:14:48.881Z,30.67
2018-05-29T11:17:17.958Z,30.34
2018-05-29T11:19:46.347Z,30.16
2018-05-29T11:22:14.637Z,30.45
2018-05-29T11:24:43.764Z,30.49
2018-05-29T11:27:12.062Z,30.43
2018-05-29T11:29:40.386Z,30.34
2018-05-29T11:32:09.428Z,30.42
2018-05-29T11:34:37.731Z,30.08
2018-05-29T11:37:06.058Z,30.67
2018-05-29T11:39:34.374Z,30.42
2018-05-29T11:42:02.691Z,30.74
2018-05-29T11:44:30.987Z,30.98
2018-05-29T11:47:00.038Z,30.75
2018-05-29T11:49:28.352Z,31.07
2018-05-29T11:51:57.415Z,31.38
2018-05-29T11:54:25.690Z,30.94
2018-05-29T11:56:54.140Z,30.81
2018-05-29T11:59:22.418Z,31.14
2018-05-29T12:01:50.817Z,31.13
2018-05-29T12:04:19.072Z,30.92
2018-05-29T12:06:47.485Z,31.14
2018-05-29T12:09:15.772Z,31.52
2018-05-29T12:11:44.119Z,31.58
2018-05-29T12:14:12.416Z,31.77
2018-05-29T12:16:41.480Z,31.58
2018-05-29T12:19:09.772Z,31.34
2018-05-29T12:21:38.077Z,31.31
2018-05-29T12:24:06.390Z,31.27
2018-05-29T12:26:34.769Z,31.20
2018-05-29T12:29:03.093Z,31.18
2018-05-29T12:31:32.182Z,31.45
2018-05-29T12:34:00.474Z,31.44
2018-05-29T12:36:28.782Z,31.58
2018-05-29T12:38:57.840Z,31.61
2018-05-29T12:41:26.132Z,31.94
2018-05-29T12:43:54.491Z,31.41
2018-05-29T12:46:22.826Z,31.44
2018-05-29T12:48:51.086Z,31.27
2018-05-29T12:51:20.130Z,30.85
2018-05-29T12:53:48.431Z,31.00
2018-05-29T12:56:16.750Z,30.74
2018-05-29T12:58:45.064Z,31.19
2018-05-29T13:01:13.377Z,31.28
2018-05-29T13:03:41.682Z,31.27
2018-05-29T13:06:10.720Z,31.25
2018-05-29T13:08:39.040Z,31.21
2018-05-29T13:11:07.478Z,31.45
2018-05-29T13:13:35.780Z,31.37
2018-05-29T13:16:04.080Z,31.12
2018-05-29T13:18:33.192Z,31.12
2018-05-29T13:21:02.274Z,31.65
2018-05-29T13:23:31.364Z,31.51
2018-05-29T13:26:00.421Z,31.59
2018-05-29T13:28:28.715Z,31.27
2018-05-29T13:30:57.033Z,30.95
2018-05-29T13:33:26.090Z,30.97
2018-05-29T13:35:54.528Z,30.95
2018-05-29T13:38:22.828Z,31.26
2018-05-29T13:40:51.157Z,31.26
2018-05-29T13:43:20.242Z,30.92
2018-05-29T13:45:49.375Z,30.64
2018-05-29T13:48:17.674Z,30.76
2018-05-29T13:50:46.012Z,30.77
2018-05-29T13:53:14.323Z,30.75
2018-05-29T13:55:42.623Z,30.74
2018-05-29T13:58:11.014Z,30.70
2018-05-29T14:00:39.305Z,30.67
2018-05-29T14:03:08.385Z,30.54
2018-05-29T14:05:36.744Z,30.46
2018-05-29T14:08:05.026Z,30.53
2018-05-29T14:10:33.350Z,30.49
2018-05-29T14:13:02.416Z,30.55
2018-05-29T14:15:30.718Z,30.56
2018-05-29T14:17:59.037Z,30.55
2018-05-29T14:20:27.320Z,30.48
2018-05-29T14:22:55.664Z,30.54
2018-05-29T14:25:23.958Z,30.61
2018-05-29T14:27:52.271Z,30.62
2018-05-29T14:30:20.587Z,30.78
2018-05-29T14:32:49.669Z,30.74
2018-05-29T14:35:17.959Z,30.63
2018-05-29T14:37:47.089Z,30.63
2018-05-29T14:40:15.388Z,30.54
2018-05-29T14:42:43.709Z,30.62
2018-05-29T14:45:12.866Z,30.46
2018-05-29T14:47:41.235Z,30.53
2018-05-29T14:50:09.556Z,30.47
2018-05-29T14:52:38.601Z,30.52
2018-05-29T14:55:06.961Z,30.51
2018-05-29T14:57:35.253Z,30.40
2018-05-29T15:00:03.594Z,30.51
2018-05-29T15:02:32.661Z,30.49
2018-05-29T15:05:00.956Z,30.48
2018-05-29T15:07:29.280Z,30.42
2018-05-29T15:09:57.719Z,30.24
2018-05-29T15:12:26.780Z,30.40
2018-05-29T15:14:55.096Z,30.25
2018-05-29T15:19:58.747Z,30.19
2018-05-29T15:22:27.023Z,30.08
2018-05-29T15:24:55.881Z,30.26
2018-05-29T15:27:24.973Z,30.15
2018-05-29T15:29:54.032Z,30.27
2018-05-29T15:32:22.336Z,29.11
2018-05-29T15:34:50.630Z,27.87
2018-05-29T15:37:19.696Z,27.52
2018-05-29T15:39:48.069Z,28.23
2018-05-29T15:42:16.431Z,28.28
2018-05-29T15:44:44.709Z,28.13
2018-05-29T15:47:13.013Z,28.21
2018-05-29T15:49:41.327Z,28.38
2018-05-29T15:52:10.424Z,28.48
2018-05-29T15:54:38.716Z,28.51
2018-05-29T15:57:07.100Z,28.29
2018-05-29T15:59:35.406Z,28.31
2018-05-29T16:02:03.721Z,28.55
2018-05-29T16:04:32.074Z,28.66
2018-05-29T16:07:00.390Z,28.20
2018-05-29T16:09:28.716Z,27.22
2018-05-29T16:11:56.995Z,26.04
2018-05-29T16:14:25.315Z,24.74
2018-05-29T16:16:54.355Z,23.95
2018-05-29T16:19:22.653Z,23.53
2018-05-29T16:21:50.922Z,22.97
2018-05-29T16:24:19.228Z,22.78
2018-05-29T16:26:48.314Z,22.73
2018-05-29T16:29:16.620Z,22.27
2018-05-29T16:31:45.752Z,21.57
2018-05-29T16:34:14.059Z,20.97
2018-05-29T16:36:42.385Z,20.97
2018-05-29T16:39:10.730Z,20.66
2018-05-29T16:41:39.306Z,20.48
2018-05-29T16:44:07.626Z,21.03
2018-05-29T16:46:35.942Z,21.81
2018-05-29T16:49:04.267Z,21.88
2018-05-29T16:51:32.600Z,21.97
2018-05-29T16:54:00.933Z,22.24
2018-05-29T16:56:29.314Z,22.21
2018-05-29T16:58:57.591Z,22.65
2018-05-29T17:01:25.923Z,22.58
2018-05-29T17:03:54.221Z,22.77
2018-05-29T17:06:23.297Z,22.83
2018-05-29T17:08:51.618Z,22.03
2018-05-29T17:11:20.116Z,22.24
2018-05-29T17:13:48.462Z,21.94
2018-05-29T17:16:17.521Z,21.79
2018-05-29T17:18:45.953Z,21.89
2018-05-29T17:21:14.323Z,21.70
2018-05-29T17:23:43.469Z,21.66
2018-05-29T17:26:11.818Z,21.69
2018-05-29T17:28:40.155Z,21.60
2018-05-29T17:31:08.450Z,21.59
2018-05-29T17:33:37.532Z,21.51
2018-05-29T17:36:05.853Z,21.40
2018-05-29T17:38:34.176Z,21.16
2018-05-29T17:41:02.769Z,21.34
2018-05-29T17:43:31.289Z,21.15
2018-05-29T17:45:59.652Z,21.00
2018-05-29T17:48:28.937Z,20.94
2018-05-29T17:50:57.539Z,21.02
2018-05-29T17:53:25.820Z,21.00
2018-05-29T17:55:54.162Z,20.82
2018-05-29T17:58:22.510Z,20.88
2018-05-29T18:10:36.311Z,21.24
2018-05-29T18:13:05.045Z,21.19
2018-05-29T18:15:33.574Z,21.31
2018-05-29T18:18:01.966Z,21.32
2018-05-29T18:20:30.299Z,21.30
2018-05-29T18:22:58.837Z,21.20
2018-05-29T18:25:28.355Z,21.10
2018-05-29T18:27:57.673Z,21.29
2018-05-29T18:30:26.855Z,21.17
2018-05-29T18:32:55.287Z,21.24
2018-05-29T18:35:24.401Z,21.20
2018-05-29T18:37:52.958Z,21.29
2018-05-29T18:40:21.303Z,20.90
2018-05-29T18:42:49.912Z,20.71
2018-05-29T18:45:18.356Z,20.73
2018-05-29T18:47:46.678Z,20.88
2018-05-29T18:50:15.767Z,21.00
2018-05-29T18:52:44.148Z,21.27
2018-05-29T18:55:13.241Z,21.07
2018-05-29T18:57:42.348Z,21.24
2018-05-29T19:00:11.390Z,21.30
2018-05-29T19:02:39.752Z,21.12
2018-05-29T19:05:08.128Z,21.15
2018-05-29T19:07:36.444Z,21.34
2018-05-29T19:10:04.784Z,21.31
2018-05-29T19:12:33.128Z,21.36
2018-05-29T19:15:02.196Z,21.19
2018-05-29T19:17:30.511Z,21.39
2018-05-29T19:19:59.648Z,21.41
2018-05-29T19:22:27.990Z,21.26
2018-05-29T19:24:57.083Z,21.26
2018-05-29T19:27:26.413Z,21.26
2018-05-29T19:29:54.730Z,20.98
2018-05-29T19:32:23.159Z,21.12
2018-05-29T19:34:51.449Z,21.21
2018-05-29T19:37:19.781Z,21.17
2018-05-29T19:39:48.820Z,21.20
2018-05-29T19:42:17.136Z,21.16
2018-05-29T19:44:45.490Z,21.04
2018-05-29T19:47:13.726Z,21.04
2018-05-29T19:49:42.069Z,20.91
2018-05-29T19:52:10.396Z,21.07
2018-05-29T19:54:38.738Z,21.06
2018-05-29T19:57:07.177Z,20.96
2018-05-29T19:59:35.469Z,21.01
2018-05-29T20:02:03.788Z,20.91
2018-05-29T20:04:32.918Z,20.99
2018-05-29T20:07:01.183Z,20.96
2018-05-29T20:09:29.767Z,20.98
2018-05-29T20:11:58.043Z,20.91
2018-05-29T20:14:26.357Z,20.84
2018-05-29T20:16:54.673Z,20.87
2018-05-29T20:19:23.726Z,20.65
2018-05-29T20:21:52.064Z,20.69
2018-05-29T20:24:20.387Z,20.63
2018-05-29T20:26:48.761Z,20.50
2018-05-29T20:29:17.092Z,20.37
2018-05-29T20:31:46.165Z,20.36
2018-05-29T20:34:14.511Z,20.32
2018-05-29T20:36:42.818Z,20.46
2018-05-29T20:39:11.178Z,20.21
2018-05-29T20:41:39.456Z,20.32
2018-05-29T20:44:07.800Z,20.40
2018-05-29T20:46:36.114Z,20.33
2018-05-29T20:49:04.415Z,20.16
2018-05-29T20:51:32.719Z,19.98
2018-05-29T20:54:01.022Z,20.01
2018-05-29T20:56:29.330Z,20.02
2018-05-29T20:58:57.664Z,19.94
2018-05-29T21:01:25.963Z,19.84
2018-05-29T21:03:54.244Z,19.92
2018-05-29T21:06:22.525Z,20.20
2018-05-29T21:08:50.841Z,20.20
2018-05-29T21:11:19.931Z,20.20
2018-05-29T21:13:48.949Z,20.27
2018-05-29T21:16:17.293Z,20.32
2018-05-29T21:18:45.707Z,20.33
2018-05-29T21:21:14.261Z,20.32
2018-05-29T21:23:42.673Z,20.34
2018-05-29T21:26:11.213Z,20.42
2018-05-29T21:28:39.545Z,20.27
2018-05-29T21:31:07.914Z,19.99
2018-05-29T21:33:36.233Z,20.22
2018-05-29T21:36:04.599Z,20.55
2018-05-29T21:38:33.023Z,20.87
2018-05-29T21:41:02.129Z,21.03
2018-05-29T21:43:31.263Z,21.07
2018-05-29T21:45:59.662Z,21.19
2018-05-29T21:48:28.089Z,21.24
2018-05-29T21:50:57.465Z,21.33
2018-05-29T21:53:25.866Z,21.28
2018-05-29T21:55:55.014Z,21.25
2018-05-29T21:58:23.313Z,21.23
2018-05-29T22:00:51.690Z,21.19
2018-05-29T22:03:20.026Z,21.12
2018-05-29T22:05:48.464Z,21.14
2018-05-29T22:08:16.809Z,21.12
2018-05-29T22:10:45.085Z,21.14
2018-05-29T22:13:13.430Z,21.16
2018-05-29T22:15:41.844Z,21.15
2018-05-29T22:18:10.188Z,21.18
2018-05-29T22:20:39.296Z,21.21
2018-05-29T22:23:07.581Z,21.07
2018-05-29T22:25:35.909Z,21.11
2018-05-29T22:28:04.255Z,21.06
2018-05-29T22:30:32.576Z,20.91
2018-05-29T22:33:01.641Z,20.80
2018-05-29T22:35:29.951Z,20.63
2018-05-29T22:37:59.043Z,20.43
2018-05-29T22:40:28.136Z,20.28
2018-05-29T22:42:56.452Z,20.34
2018-05-29T22:45:24.780Z,20.28
2018-05-29T22:47:53.188Z,20.30
2018-05-29T22:50:21.542Z,20.12
2018-05-29T22:52:49.851Z,20.05
2018-05-29T22:55:18.957Z,19.95
2018-05-29T22:57:47.263Z,19.92
2018-05-29T23:00:15.681Z,19.84
2018-05-29T23:02:44.013Z,19.83
2018-05-29T23:05:12.367Z,19.88
2018-05-29T23:07:41.583Z,19.88
2018-05-29T23:10:09.895Z,19.84
2018-05-29T23:12:38.286Z,19.86
2018-05-29T23:15:06.607Z,19.81
2018-05-29T23:17:34.911Z,19.79
2018-05-29T23:20:03.252Z,19.80
2018-05-29T23:22:32.307Z,19.75
2018-05-29T23:25:00.636Z,19.70
2018-05-29T23:27:28.943Z,19.62
2018-05-29T23:29:57.285Z,19.60
2018-05-29T23:32:26.332Z,19.53
2018-05-29T23:34:54.765Z,19.48
2018-05-29T23:37:23.061Z,19.39
2018-05-29T23:39:51.379Z,19.41
2018-05-29T23:42:19.707Z,19.37
2018-05-29T23:44:48.003Z,19.39
2018-05-29T23:47:16.380Z,19.42
2018-05-29T23:49:44.661Z,19.39
2018-05-29T23:52:12.973Z,19.43
2018-05-29T23:54:41.268Z,19.43
2018-05-29T23:57:10.397Z,19.40
2018-05-29T23:59:38.705Z,19.41
